Terminal Aerodrome Forecast
Issued by NWS

Home | Current Version | Previous Version | Text Only | Print | Product List | Glossary On
Versions: 1 2 3 4 5 6 7 8 9 10 11 12
000
FTUS44 KTSA 021137
TAFFYV
TAF
KFYV 021137Z 0212/0312 19004KT P6SM FEW250
     FM021500 22008KT P6SM SCT100
     FM030200 18002KT P6SM FEW120=

USA.gov is the U.S. government's official web portal to all federal, state and local government web resources and services.